Wednesday, August 15, 2018, 7:07 AM EDT
Back to Local

KSWF, Newburgh / Stewart

Location: New Windsor, NY, United States Lat: 41.5
Local Time: 7:07 AM EDT (11:07 GMT) Lon: -74.1
Time Zone: US/Eastern Elev: 492 ft

Show me the last for .
Show Decoded

2018-08-15 06:45 METAR KSWF 151045Z VRB05KT 20SM FEW015 19/19 A2988 =
2018-08-15 05:45 METAR KSWF 150945Z VRB05KT 7SM FEW015 19/19 A2988 =
2018-08-15 04:45 METAR KSWF 150845Z VRB05KT 7SM FEW007 19/19 A2985 =
2018-08-15 03:45 METAR KSWF 150745Z VRB05KT 7SM FEW007 19/19 A2985 =
2018-08-15 02:45 METAR KSWF 150645Z VRB05KT 7SM FEW007 20/20 A2985 =
2018-08-15 01:45 METAR KSWF 150545Z VRB05KT 7SM FEW007 20/20 A2985 =
2018-08-15 00:45 METAR KSWF 150445Z VRB05KT 7SM FEW007 20/20 A2986 =
2018-08-14 23:45 METAR KSWF 150345Z VRB05KT 5SM BR FEW007 20/20 A2986 =
2018-08-14 22:45 METAR KSWF 150245Z VRB05KT 7SM FEW007 20/20 A2986 =
2018-08-14 21:45 METAR KSWF 150145Z 28005KT 10SM SCT100 20/20 A2986 =
2018-08-14 20:45 METAR KSWF 150045Z 28005KT 10SM -RA SCT050 BKN080 21/20 A2985 =
2018-08-14 19:45 METAR KSWF 142345Z 26008KT 10SM -RA SCT060 BKN100 22/21 A2984 =
2018-08-14 18:45 METAR KSWF 142245Z 25006KT 15SM SCT030 BKN100 24/22 A2983 =
2018-08-14 17:45 METAR KSWF 142145Z 25006KT 15SM SCT030 BKN100 24/22 A2982 =
2018-08-14 16:45 METAR KSWF 142045Z 20006KT 15SM SCT030 BKN100 25/21 A2983 =
2018-08-14 16:10 METAR KSWF 142010Z COR 00000KT 15SM SCT030 BKN120 24/21 A2984 =
2018-08-14 15:45 METAR KSWF 141945Z 00000KT 15SM SCT030 BKN012 24/21 A2984 =
2018-08-14 14:55 METAR KSWF 141855Z COR 24006KT 10SM -TSRA SCT030 BKN060 23/21 A2985 RMK TS OHD
                 MOV E LTG DSNT E =
2018-08-14 14:45 METAR KSWF 141845Z 24006KT 10SM -TSRA SCT030 BKN060 23/21 A2985 RMK TS OVHD MOV
                 E LTG DSNT E =
2018-08-14 13:45 METAR KSWF 141745Z 27010KT 7SM -TSRA BKN035 24/21 A2985 RMK OCL LTG ICCG TSB34
                 TS SW MOV N =
2018-08-14 12:45 METAR KSWF 141645Z 27010KT 15SM SCT035 27/21 A2986 =
2018-08-14 11:45 METAR KSWF 141545Z 20010KT 15SM SCT030 26/21 A2988 =
2018-08-14 10:45 METAR KSWF 141445Z 00000KT 15SM SCT030 25/22 A2989 =
2018-08-14 08:45 METAR KSWF 141245Z 00000KT 7SM SCT007 BKN012 BKN030 22/21 A2990 =

Support USWX by starting your Amazon purchase here.